createdAt,value
2023-07-21T00:00:40.643Z,7.35
2023-07-21T00:03:11.568Z,6.55
2023-07-21T00:05:38.901Z,7.40
2023-07-21T00:08:08.032Z,5.78
2023-07-21T00:10:43.643Z,8.85
2023-07-21T00:13:14.038Z,8.48
2023-07-21T00:15:50.889Z,8.18
2023-07-21T00:18:20.154Z,8.73
2023-07-21T00:20:53.925Z,10.80
2023-07-21T00:23:28.070Z,9.90
2023-07-21T00:25:56.379Z,10.63
2023-07-21T00:28:28.489Z,7.10
2023-07-21T00:30:56.524Z,8.13
2023-07-21T00:33:36.432Z,7.30
2023-07-21T00:36:13.797Z,8.25
2023-07-21T00:38:47.767Z,8.15
2023-07-21T00:41:16.944Z,6.57
2023-07-21T00:43:49.472Z,8.23
2023-07-21T00:46:19.498Z,8.85
2023-07-21T00:48:52.948Z,10.10
2023-07-21T00:51:24.437Z,7.30
2023-07-21T00:53:54.429Z,7.55
2023-07-21T00:56:22.602Z,8.30
2023-07-21T00:58:51.011Z,9.88
2023-07-21T01:01:26.099Z,7.93
2023-07-21T01:03:53.546Z,8.43
2023-07-21T01:06:21.148Z,10.00
2023-07-21T01:08:48.353Z,7.70
2023-07-21T01:11:15.625Z,11.18
2023-07-21T01:13:42.633Z,6.82
2023-07-21T01:16:12.579Z,7.43
2023-07-21T01:18:42.440Z,8.55
2023-07-21T01:21:15.598Z,7.75
2023-07-21T01:23:51.691Z,8.60
2023-07-21T01:26:22.279Z,9.00
2023-07-21T01:28:53.163Z,11.45
2023-07-21T01:31:21.220Z,8.82
2023-07-21T01:33:50.047Z,7.82
2023-07-21T01:36:18.804Z,8.05
2023-07-21T01:38:47.298Z,7.53
2023-07-21T01:41:16.611Z,10.68
2023-07-21T01:43:44.026Z,7.97
2023-07-21T01:46:12.385Z,8.32
2023-07-21T01:48:39.430Z,10.68
2023-07-21T01:51:06.618Z,9.52
2023-07-21T01:53:37.318Z,13.10
2023-07-21T01:56:09.354Z,8.50
2023-07-21T01:58:39.150Z,7.65
2023-07-21T02:01:09.704Z,8.73
2023-07-21T02:03:37.842Z,9.85
2023-07-21T02:06:18.295Z,9.25
2023-07-21T02:08:45.560Z,11.30
2023-07-21T02:11:12.749Z,9.65
2023-07-21T02:13:54.832Z,9.95
2023-07-21T02:16:23.434Z,10.50
2023-07-21T02:18:55.096Z,8.85
2023-07-21T02:21:22.121Z,9.80
2023-07-21T02:23:50.795Z,11.10
2023-07-21T02:26:17.912Z,10.88
2023-07-21T02:28:44.753Z,9.73
2023-07-21T02:31:12.427Z,10.57
2023-07-21T02:33:39.440Z,9.18
2023-07-21T02:36:09.647Z,10.38
2023-07-21T02:38:36.340Z,9.95
2023-07-21T02:41:05.430Z,14.23
2023-07-21T02:43:35.420Z,9.93
2023-07-21T02:46:05.576Z,9.98
2023-07-21T02:48:35.108Z,8.45
2023-07-21T02:51:02.048Z,9.98
2023-07-21T02:53:34.479Z,9.85
2023-07-21T02:56:05.415Z,10.40
2023-07-21T02:58:49.404Z,11.10
2023-07-21T03:01:21.859Z,10.07
2023-07-21T03:03:49.198Z,12.80
2023-07-21T03:06:16.884Z,9.98
2023-07-21T03:08:43.931Z,9.05
2023-07-21T03:11:15.387Z,9.85
2023-07-21T03:14:07.547Z,11.68
2023-07-21T03:16:37.738Z,10.55
2023-07-21T03:19:06.134Z,12.10
2023-07-21T03:21:33.045Z,11.70
2023-07-21T03:24:00.139Z,10.30
2023-07-21T03:26:29.179Z,11.57
2023-07-21T03:28:56.818Z,17.48
2023-07-21T03:31:25.780Z,11.27
2023-07-21T03:33:59.661Z,11.63
2023-07-21T03:36:31.052Z,12.68
2023-07-21T03:38:59.323Z,10.20
2023-07-21T03:41:26.366Z,10.25
2023-07-21T03:43:53.377Z,13.55
2023-07-21T03:46:21.373Z,11.25
2023-07-21T03:49:14.796Z,11.05
2023-07-21T03:51:47.824Z,10.18
2023-07-21T03:54:16.440Z,11.95
2023-07-21T03:56:43.560Z,10.55
2023-07-21T03:59:12.850Z,10.80
2023-07-21T04:01:40.161Z,11.80
2023-07-21T04:04:09.914Z,10.65
2023-07-21T04:06:39.807Z,10.98
2023-07-21T04:09:09.528Z,11.63
2023-07-21T04:11:36.485Z,11.55
2023-07-21T04:14:03.461Z,13.38
2023-07-21T04:16:30.403Z,15.95
2023-07-21T04:18:58.938Z,12.52
2023-07-21T04:21:26.782Z,12.55
2023-07-21T04:23:54.165Z,11.02
2023-07-21T04:26:20.997Z,12.88
2023-07-21T04:28:48.856Z,10.07
2023-07-21T04:31:22.959Z,11.60
2023-07-21T04:34:05.428Z,11.98
2023-07-21T04:36:36.238Z,11.95
2023-07-21T04:39:09.102Z,10.00
2023-07-21T04:41:36.123Z,11.95
2023-07-21T04:44:03.654Z,10.93
2023-07-21T04:46:31.174Z,12.60
2023-07-21T04:48:59.740Z,12.18
2023-07-21T04:51:36.661Z,10.90
2023-07-21T04:54:03.898Z,13.43
2023-07-21T04:56:30.864Z,13.27
2023-07-21T04:58:57.832Z,13.90
2023-07-21T05:01:25.166Z,13.13
2023-07-21T05:03:52.230Z,14.80
2023-07-21T05:06:19.401Z,13.10
2023-07-21T05:08:50.709Z,12.25
2023-07-21T05:11:17.495Z,13.57
2023-07-21T05:13:46.373Z,9.63
2023-07-21T05:16:26.624Z,10.45
2023-07-21T05:19:17.080Z,12.90
2023-07-21T05:22:00.205Z,9.40
2023-07-21T05:24:56.618Z,11.50
2023-07-21T05:27:24.980Z,11.23
2023-07-21T05:29:58.384Z,12.10
2023-07-21T05:32:28.955Z,11.23
2023-07-21T05:35:10.680Z,13.93
2023-07-21T05:37:39.283Z,12.38
2023-07-21T05:40:07.990Z,10.48
2023-07-21T05:42:35.556Z,10.75
2023-07-21T05:45:06.627Z,12.50
2023-07-21T05:47:34.750Z,11.48
2023-07-21T05:50:02.442Z,11.07
2023-07-21T05:52:34.941Z,11.15
2023-07-21T05:55:04.367Z,11.70
2023-07-21T05:57:33.486Z,10.50
2023-07-21T06:00:00.617Z,11.88
2023-07-21T06:02:28.138Z,10.40
2023-07-21T06:05:00.001Z,12.65
2023-07-21T06:07:46.570Z,9.98
2023-07-21T06:10:13.720Z,12.88
2023-07-21T06:12:49.876Z,14.23
2023-07-21T06:15:22.419Z,10.05
2023-07-21T06:17:57.479Z,12.43
2023-07-21T06:20:26.371Z,14.77
2023-07-21T06:22:54.006Z,11.00
2023-07-21T06:25:21.693Z,10.38
2023-07-21T06:27:52.331Z,14.63
2023-07-21T06:30:21.542Z,11.25
2023-07-21T06:32:51.062Z,10.82
2023-07-21T06:35:38.310Z,12.02
2023-07-21T06:38:28.503Z,12.82
2023-07-21T06:41:05.784Z,12.13
2023-07-21T06:43:54.135Z,11.23
2023-07-21T06:46:39.833Z,10.32
2023-07-21T06:49:30.613Z,11.57
2023-07-21T06:52:01.461Z,10.52
2023-07-21T06:54:32.139Z,10.43
2023-07-21T06:57:01.982Z,11.45
2023-07-21T06:59:28.721Z,10.02
2023-07-21T07:01:56.410Z,10.63
2023-07-21T07:04:23.413Z,14.75
2023-07-21T07:06:50.224Z,11.60
2023-07-21T07:09:17.474Z,10.68
2023-07-21T07:11:44.872Z,8.45
2023-07-21T07:14:15.270Z,12.35
2023-07-21T07:16:49.463Z,9.05
2023-07-21T07:19:19.333Z,10.23
2023-07-21T07:21:50.134Z,9.60
2023-07-21T07:24:20.344Z,8.20
2023-07-21T07:26:49.240Z,8.85
2023-07-21T07:29:18.157Z,9.02
2023-07-21T07:31:48.682Z,11.13
2023-07-21T07:34:17.194Z,9.75
2023-07-21T07:36:53.049Z,11.60
2023-07-21T07:39:23.716Z,11.65
2023-07-21T07:41:56.375Z,8.32
2023-07-21T07:44:25.586Z,8.20
2023-07-21T09:01:30.206Z,10.95
2023-07-21T09:56:37.844Z,8.05
2023-07-21T10:39:36.198Z,10.00
2023-07-21T10:43:04.119Z,12.18
2023-07-21T10:52:15.931Z,10.77
2023-07-21T11:07:37.892Z,17.55
2023-07-21T11:16:34.878Z,15.50
2023-07-21T12:32:29.615Z,8.52
2023-07-21T12:35:07.946Z,8.63
2023-07-21T12:37:57.134Z,5.80
2023-07-21T12:41:11.332Z,2.38
2023-07-21T12:44:12.028Z,4.45
2023-07-21T12:50:21.681Z,2.58
2023-07-21T12:53:37.347Z,2.72
2023-07-21T13:00:14.277Z,5.40
2023-07-21T13:03:17.684Z,4.70
2023-07-21T13:06:06.939Z,7.15
2023-07-21T13:11:49.745Z,5.55
2023-07-21T13:14:30.054Z,7.10
2023-07-21T13:17:07.754Z,6.47
2023-07-21T13:23:33.758Z,6.35
2023-07-21T13:26:19.084Z,6.95
2023-07-21T13:28:58.394Z,9.93
2023-07-21T13:31:46.223Z,6.68
2023-07-21T13:34:26.602Z,8.27
2023-07-21T13:37:13.983Z,8.82
2023-07-21T13:40:00.524Z,7.00
2023-07-21T13:42:56.330Z,6.40
2023-07-21T13:45:30.676Z,7.68
2023-07-21T13:47:59.269Z,7.35
2023-07-21T13:50:28.816Z,9.05
2023-07-21T13:53:00.894Z,6.70
2023-07-21T14:02:04.177Z,6.38
2023-07-21T14:04:43.446Z,8.30
2023-07-21T14:10:13.899Z,7.90
2023-07-21T14:13:02.042Z,13.25
2023-07-21T14:15:44.162Z,9.45
2023-07-21T14:18:31.924Z,6.55
2023-07-21T14:21:04.073Z,8.07
2023-07-21T14:23:33.166Z,8.32
2023-07-21T14:26:07.785Z,7.30
2023-07-21T14:28:51.716Z,7.60
2023-07-21T14:31:43.248Z,7.30
2023-07-21T14:34:43.299Z,9.35
2023-07-21T14:37:23.737Z,8.05
2023-07-21T14:39:53.546Z,9.68
2023-07-21T14:42:21.834Z,6.18
2023-07-21T14:44:51.639Z,6.22
2023-07-21T14:47:34.831Z,9.25
2023-07-21T14:50:08.278Z,5.22
2023-07-21T14:52:44.524Z,8.10
2023-07-21T14:55:23.562Z,7.93
2023-07-21T14:57:51.616Z,9.23
2023-07-21T15:00:23.802Z,10.45
2023-07-21T15:02:54.597Z,7.75
2023-07-21T15:05:30.707Z,6.25
2023-07-21T15:07:58.980Z,6.32
2023-07-21T15:10:32.141Z,5.28
2023-07-21T15:13:03.300Z,4.18
2023-07-21T15:15:30.164Z,6.80
2023-07-21T15:17:59.429Z,3.78
2023-07-21T15:20:27.361Z,4.90
2023-07-21T15:23:01.672Z,6.10
2023-07-21T15:25:28.869Z,6.25
2023-07-21T15:27:55.915Z,4.75
2023-07-21T15:30:24.915Z,6.78
2023-07-21T15:32:54.522Z,6.38
2023-07-21T15:35:21.358Z,6.40
2023-07-21T15:37:50.070Z,6.15
2023-07-21T15:40:19.869Z,6.95
2023-07-21T15:42:47.577Z,5.15
2023-07-21T15:45:14.345Z,6.68
2023-07-21T15:47:41.291Z,9.55
2023-07-21T15:50:12.569Z,9.55
2023-07-21T15:52:42.515Z,6.70
2023-07-21T15:55:12.486Z,5.38
2023-07-21T15:57:40.358Z,8.70
2023-07-21T16:00:17.093Z,6.85
2023-07-21T16:02:52.105Z,8.93
2023-07-21T16:05:20.494Z,9.52
2023-07-21T16:07:48.756Z,9.30
2023-07-21T16:13:50.958Z,7.22
2023-07-21T16:16:29.469Z,10.45
2023-07-21T16:18:56.923Z,9.15
2023-07-21T16:21:24.649Z,7.72
2023-07-21T16:23:53.851Z,9.23
2023-07-21T16:26:24.045Z,7.43
2023-07-21T16:28:51.786Z,6.90
2023-07-21T16:31:19.317Z,11.82
2023-07-21T16:33:48.296Z,9.65
2023-07-21T16:36:17.675Z,7.30
2023-07-21T16:38:46.396Z,12.60
2023-07-21T16:41:14.513Z,8.75
2023-07-21T16:43:44.170Z,7.60
2023-07-21T16:46:11.420Z,7.85
2023-07-21T16:48:38.949Z,5.20
2023-07-21T16:51:09.420Z,9.85
2023-07-21T16:53:36.667Z,6.53
2023-07-21T16:56:11.091Z,7.10
2023-07-21T16:58:40.893Z,10.15
2023-07-21T17:01:11.579Z,11.93
2023-07-21T17:03:39.231Z,12.38
2023-07-21T17:06:10.596Z,7.18
2023-07-21T17:08:51.282Z,7.93
2023-07-21T17:13:59.923Z,7.07
2023-07-21T17:16:27.640Z,8.52
2023-07-21T17:18:55.862Z,7.40
2023-07-21T17:21:23.047Z,11.15
2023-07-21T17:23:50.040Z,9.23
2023-07-21T17:26:19.569Z,6.30
2023-07-21T17:28:46.819Z,7.00
2023-07-21T17:31:14.569Z,5.75
2023-07-21T17:33:44.824Z,8.00
2023-07-21T17:36:11.926Z,8.07
2023-07-21T17:38:38.895Z,8.63
2023-07-21T17:41:14.714Z,8.50
2023-07-21T17:43:41.952Z,7.60
2023-07-21T17:46:09.020Z,5.78
2023-07-21T17:48:39.084Z,9.85
2023-07-21T17:51:06.331Z,10.88
2023-07-21T17:53:33.350Z,11.30
2023-07-21T17:56:00.672Z,15.80
2023-07-21T17:58:27.756Z,10.40
2023-07-21T18:00:58.793Z,6.95
2023-07-21T18:03:25.965Z,7.50
2023-07-21T18:05:54.554Z,8.48
2023-07-21T18:08:27.691Z,9.73
2023-07-21T18:10:54.996Z,10.70
2023-07-21T18:13:29.324Z,11.57
2023-07-21T18:15:56.983Z,12.43
2023-07-21T18:18:25.044Z,9.00
2023-07-21T18:21:08.804Z,8.50
2023-07-21T18:23:37.841Z,8.73
2023-07-21T18:26:08.780Z,6.80
2023-07-21T18:28:38.849Z,9.48
2023-07-21T18:31:09.202Z,6.88
2023-07-21T18:33:39.860Z,7.15
2023-07-21T18:36:15.196Z,8.00
2023-07-21T18:38:49.797Z,8.30
2023-07-21T18:41:25.641Z,10.18
2023-07-21T18:50:55.272Z,7.75
2023-07-21T18:53:22.627Z,10.23
2023-07-21T18:55:52.437Z,9.55
2023-07-21T18:58:19.823Z,10.65
2023-07-21T19:00:48.817Z,10.18
2023-07-21T19:03:15.847Z,7.60
2023-07-21T19:05:43.051Z,12.80
2023-07-21T19:08:14.797Z,9.75
2023-07-21T19:10:42.114Z,10.35
2023-07-21T19:13:26.882Z,10.88
2023-07-21T19:15:54.524Z,10.98
2023-07-21T19:18:24.911Z,11.27
2023-07-21T19:20:51.983Z,11.82
2023-07-21T19:23:18.715Z,11.35
2023-07-21T19:25:52.524Z,16.83
2023-07-21T19:28:19.460Z,12.48
2023-07-21T19:30:46.902Z,12.70
2023-07-21T19:33:18.252Z,11.60
2023-07-21T19:35:45.199Z,10.55
2023-07-21T19:38:11.838Z,10.02
2023-07-21T19:40:39.711Z,15.73
2023-07-21T19:43:10.703Z,14.13
2023-07-21T19:45:41.176Z,9.77
2023-07-21T19:48:10.003Z,10.38
2023-07-21T19:50:37.619Z,11.57
2023-07-21T19:53:04.467Z,10.32
2023-07-21T19:55:38.626Z,13.93
2023-07-21T19:58:07.291Z,13.50
2023-07-21T20:00:33.966Z,14.30
2023-07-21T20:03:00.809Z,10.07
2023-07-21T20:05:27.782Z,11.80
2023-07-21T20:07:54.850Z,11.68
2023-07-21T20:10:22.718Z,14.30
2023-07-21T20:12:51.780Z,13.82
2023-07-21T20:15:19.870Z,14.57
2023-07-21T20:17:47.128Z,15.43
2023-07-21T20:20:16.428Z,16.63
2023-07-21T20:22:46.147Z,13.98
2023-07-21T20:25:13.394Z,14.48
2023-07-21T20:27:40.132Z,15.98
2023-07-21T20:30:07.765Z,17.77
2023-07-21T20:32:34.533Z,9.75
2023-07-21T20:35:03.534Z,11.05
2023-07-21T20:37:30.571Z,9.38
2023-07-21T20:39:57.403Z,11.57
2023-07-21T20:42:24.288Z,13.20
2023-07-21T20:44:51.030Z,11.52
2023-07-21T20:47:20.828Z,15.52
2023-07-21T20:49:50.629Z,12.30
2023-07-21T20:52:17.523Z,13.07
2023-07-21T20:54:44.111Z,11.23
2023-07-21T20:57:11.463Z,14.63
2023-07-21T20:59:43.663Z,11.10
2023-07-21T21:02:15.262Z,12.77
2023-07-21T21:04:42.540Z,9.88
2023-07-21T21:07:09.370Z,12.73
2023-07-21T21:09:36.252Z,12.20
2023-07-21T21:12:03.234Z,12.07
2023-07-21T21:14:29.892Z,12.48
2023-07-21T21:16:56.760Z,13.43
2023-07-21T21:19:23.656Z,13.85
2023-07-21T21:21:50.341Z,10.32
2023-07-21T21:24:18.705Z,10.68
2023-07-21T21:26:46.012Z,11.50
2023-07-21T21:29:12.759Z,11.35
2023-07-21T21:31:39.675Z,11.05
2023-07-21T21:34:07.714Z,11.07
2023-07-21T21:36:34.477Z,16.02
2023-07-21T21:39:01.662Z,13.10
2023-07-21T21:41:28.321Z,11.25
2023-07-21T21:43:54.953Z,13.40
2023-07-21T21:46:24.726Z,11.85
2023-07-21T21:48:51.799Z,13.05
2023-07-21T21:51:19.123Z,11.98
2023-07-21T21:53:45.907Z,12.52
2023-07-21T21:56:12.804Z,13.93
2023-07-21T21:58:39.487Z,11.35
2023-07-21T22:01:06.362Z,12.55
2023-07-21T22:03:35.152Z,11.50
2023-07-21T22:06:02.273Z,16.55
2023-07-21T22:08:28.920Z,17.08
2023-07-21T22:10:55.827Z,11.52
2023-07-21T22:13:22.870Z,15.63
2023-07-21T22:15:49.687Z,14.10
2023-07-21T22:18:16.289Z,12.38
2023-07-21T22:20:43.402Z,13.93
2023-07-21T22:23:13.436Z,15.13
2023-07-21T22:25:40.145Z,12.65
2023-07-21T22:28:09.079Z,13.45
2023-07-21T22:30:36.148Z,12.73
2023-07-21T22:33:04.210Z,12.35
2023-07-21T22:35:32.669Z,15.73
2023-07-21T22:38:02.256Z,13.18
2023-07-21T22:40:29.081Z,17.35
2023-07-21T22:42:55.758Z,14.05
2023-07-21T22:45:22.599Z,12.70
2023-07-21T22:47:52.075Z,13.52
2023-07-21T22:50:24.140Z,13.82
2023-07-21T22:52:56.021Z,17.17
2023-07-21T22:55:28.530Z,13.00
2023-07-21T22:58:02.518Z,20.73
2023-07-21T23:00:31.886Z,15.70
2023-07-21T23:02:58.854Z,18.23
2023-07-21T23:05:25.724Z,18.27
2023-07-21T23:07:52.572Z,16.63
2023-07-21T23:10:19.995Z,15.43
2023-07-21T23:12:47.438Z,18.05
2023-07-21T23:15:14.186Z,16.98
2023-07-21T23:17:40.942Z,21.85
2023-07-21T23:20:08.927Z,19.13
2023-07-21T23:22:35.722Z,17.88
2023-07-21T23:25:02.663Z,15.43
2023-07-21T23:27:29.653Z,17.75
2023-07-21T23:29:56.754Z,15.73
2023-07-21T23:32:23.650Z,17.73
2023-07-21T23:34:50.571Z,17.00
2023-07-21T23:37:17.292Z,18.52
2023-07-21T23:39:44.010Z,16.92
2023-07-21T23:42:10.784Z,17.67
2023-07-21T23:44:38.846Z,20.02
2023-07-21T23:47:08.516Z,20.83
2023-07-21T23:49:35.299Z,19.02
2023-07-21T23:52:03.598Z,20.10
2023-07-21T23:54:30.762Z,22.83
2023-07-21T23:56:58.206Z,20.10
2023-07-21T23:59:25.149Z,21.73
